sensor_id;sensor_type;location;lat;lon;timestamp;temperature;humidity
11320;DHT22;5715;48.234;14.320;2022-12-29T00:01:19;-1.10;99.90
11320;DHT22;5715;48.234;14.320;2022-12-29T00:04:07;-1.10;99.90
11320;DHT22;5715;48.234;14.320;2022-12-29T00:07:03;-1.10;99.90
11320;DHT22;5715;48.234;14.320;2022-12-29T00:09:51;-1.10;99.90
11320;DHT22;5715;48.234;14.320;2022-12-29T00:12:39;-1.10;99.90
11320;DHT22;5715;48.234;14.320;2022-12-29T00:15:46;-1.10;99.90
11320;DHT22;5715;48.234;14.320;2022-12-29T00:18:34;-1.10;99.90
11320;DHT22;5715;48.234;14.320;2022-12-29T00:21:23;-1.10;99.90
11320;DHT22;5715;48.234;14.320;2022-12-29T00:24:30;-1.10;99.90
11320;DHT22;5715;48.234;14.320;2022-12-29T00:27:37;-1.10;99.90
11320;DHT22;5715;48.234;14.320;2022-12-29T00:30:50;-1.10;99.90
11320;DHT22;5715;48.234;14.320;2022-12-29T00:33:57;-1.10;99.90
11320;DHT22;5715;48.234;14.320;2022-12-29T00:37:03;-1.10;99.90
11320;DHT22;5715;48.234;14.320;2022-12-29T00:39:50;-1.10;99.90
11320;DHT22;5715;48.234;14.320;2022-12-29T00:43:16;-1.00;99.90
11320;DHT22;5715;48.234;14.320;2022-12-29T00:46:22;-1.00;99.90
11320;DHT22;5715;48.234;14.320;2022-12-29T00:49:13;-1.00;99.90
11320;DHT22;5715;48.234;14.320;2022-12-29T00:52:20;-1.00;99.90
11320;DHT22;5715;48.234;14.320;2022-12-29T00:55:07;-1.00;99.90
11320;DHT22;5715;48.234;14.320;2022-12-29T00:57:55;-1.00;99.90
11320;DHT22;5715;48.234;14.320;2022-12-29T01:00:43;-1.00;99.90
11320;DHT22;5715;48.234;14.320;2022-12-29T01:03:30;-1.00;99.90
11320;DHT22;5715;48.234;14.320;2022-12-29T01:06:19;-1.00;99.90
11320;DHT22;5715;48.234;14.320;2022-12-29T01:09:08;-1.00;99.90
11320;DHT22;5715;48.234;14.320;2022-12-29T01:12:15;-1.00;99.90
11320;DHT22;5715;48.234;14.320;2022-12-29T01:15:05;-1.00;99.90
11320;DHT22;5715;48.234;14.320;2022-12-29T01:17:57;-1.10;99.90
11320;DHT22;5715;48.234;14.320;2022-12-29T01:20:45;-1.10;99.90
11320;DHT22;5715;48.234;14.320;2022-12-29T01:23:32;-1.10;99.90
11320;DHT22;5715;48.234;14.320;2022-12-29T01:26:20;-1.10;99.90
11320;DHT22;5715;48.234;14.320;2022-12-29T01:29:08;-1.10;99.90
11320;DHT22;5715;48.234;14.320;2022-12-29T01:31:56;-1.10;99.90
11320;DHT22;5715;48.234;14.320;2022-12-29T01:34:43;-1.10;99.90
11320;DHT22;5715;48.234;14.320;2022-12-29T01:37:34;-1.10;99.90
11320;DHT22;5715;48.234;14.320;2022-12-29T01:40:21;-1.10;99.90
11320;DHT22;5715;48.234;14.320;2022-12-29T01:43:11;-1.10;99.90
11320;DHT22;5715;48.234;14.320;2022-12-29T01:46:01;-1.10;99.90
11320;DHT22;5715;48.234;14.320;2022-12-29T01:48:50;-1.10;99.90
11320;DHT22;5715;48.234;14.320;2022-12-29T01:52:02;-1.10;99.90
11320;DHT22;5715;48.234;14.320;2022-12-29T01:54:54;-1.10;99.90
11320;DHT22;5715;48.234;14.320;2022-12-29T01:57:46;-1.10;99.90
11320;DHT22;5715;48.234;14.320;2022-12-29T02:00:38;-1.10;99.90
11320;DHT22;5715;48.234;14.320;2022-12-29T02:03:27;-1.10;99.90
11320;DHT22;5715;48.234;14.320;2022-12-29T02:06:26;-1.00;99.90
11320;DHT22;5715;48.234;14.320;2022-12-29T02:09:36;-1.00;99.90
11320;DHT22;5715;48.234;14.320;2022-12-29T02:12:24;-0.80;99.90
11320;DHT22;5715;48.234;14.320;2022-12-29T02:15:12;-0.60;99.90
11320;DHT22;5715;48.234;14.320;2022-12-29T02:32:30;-0.50;99.90
11320;DHT22;5715;48.234;14.320;2022-12-29T02:35:35;-0.60;99.90
11320;DHT22;5715;48.234;14.320;2022-12-29T02:38:52;-0.60;99.90
11320;DHT22;5715;48.234;14.320;2022-12-29T02:41:58;-0.60;99.90
11320;DHT22;5715;48.234;14.320;2022-12-29T02:48:15;-0.70;99.90
11320;DHT22;5715;48.234;14.320;2022-12-29T02:51:50;-0.80;99.90
11320;DHT22;5715;48.234;14.320;2022-12-29T02:54:43;-0.80;99.90
11320;DHT22;5715;48.234;14.320;2022-12-29T02:57:33;-0.90;99.90
11320;DHT22;5715;48.234;14.320;2022-12-29T03:00:22;-0.90;99.90
11320;DHT22;5715;48.234;14.320;2022-12-29T03:10:30;-1.10;99.90
11320;DHT22;5715;48.234;14.320;2022-12-29T03:13:47;-1.10;99.90
11320;DHT22;5715;48.234;14.320;2022-12-29T03:17:01;-1.00;99.90
11320;DHT22;5715;48.234;14.320;2022-12-29T03:20:06;-1.00;99.90
11320;DHT22;5715;48.234;14.320;2022-12-29T03:23:00;-1.10;99.90
11320;DHT22;5715;48.234;14.320;2022-12-29T03:25:53;-1.10;99.90
11320;DHT22;5715;48.234;14.320;2022-12-29T03:28:53;-1.10;99.90
11320;DHT22;5715;48.234;14.320;2022-12-29T03:31:44;-1.10;99.90
11320;DHT22;5715;48.234;14.320;2022-12-29T03:34:37;-1.20;99.90
11320;DHT22;5715;48.234;14.320;2022-12-29T03:37:29;-1.20;99.90
11320;DHT22;5715;48.234;14.320;2022-12-29T03:40:23;-1.20;99.90
11320;DHT22;5715;48.234;14.320;2022-12-29T03:43:13;-1.10;99.90
11320;DHT22;5715;48.234;14.320;2022-12-29T03:46:01;-1.20;99.90
11320;DHT22;5715;48.234;14.320;2022-12-29T03:48:49;-1.20;99.90
11320;DHT22;5715;48.234;14.320;2022-12-29T03:51:36;-1.20;99.90
11320;DHT22;5715;48.234;14.320;2022-12-29T03:54:24;-1.30;99.90
11320;DHT22;5715;48.234;14.320;2022-12-29T03:57:12;-1.30;99.90
11320;DHT22;5715;48.234;14.320;2022-12-29T04:00:00;-1.30;99.90
11320;DHT22;5715;48.234;14.320;2022-12-29T04:02:48;-1.30;99.90
11320;DHT22;5715;48.234;14.320;2022-12-29T04:05:36;-1.40;99.90
11320;DHT22;5715;48.234;14.320;2022-12-29T04:08:23;-1.40;99.90
11320;DHT22;5715;48.234;14.320;2022-12-29T04:11:11;-1.40;99.90
11320;DHT22;5715;48.234;14.320;2022-12-29T04:13:59;-1.40;99.90
11320;DHT22;5715;48.234;14.320;2022-12-29T04:16:46;-1.40;99.90
11320;DHT22;5715;48.234;14.320;2022-12-29T04:19:34;-1.50;99.90
11320;DHT22;5715;48.234;14.320;2022-12-29T04:22:21;-1.60;99.90
11320;DHT22;5715;48.234;14.320;2022-12-29T04:25:09;-1.60;99.90
11320;DHT22;5715;48.234;14.320;2022-12-29T04:27:57;-1.60;99.90
11320;DHT22;5715;48.234;14.320;2022-12-29T04:30:45;-1.60;99.90
11320;DHT22;5715;48.234;14.320;2022-12-29T04:33:33;-1.50;99.90
11320;DHT22;5715;48.234;14.320;2022-12-29T04:36:21;-1.60;99.90
11320;DHT22;5715;48.234;14.320;2022-12-29T04:39:15;-1.70;99.90
11320;DHT22;5715;48.234;14.320;2022-12-29T04:42:04;-1.60;99.90
11320;DHT22;5715;48.234;14.320;2022-12-29T04:44:51;-1.60;99.90
11320;DHT22;5715;48.234;14.320;2022-12-29T04:47:39;-1.70;99.90
11320;DHT22;5715;48.234;14.320;2022-12-29T04:50:27;-1.70;99.90
11320;DHT22;5715;48.234;14.320;2022-12-29T04:53:15;-1.70;99.90
11320;DHT22;5715;48.234;14.320;2022-12-29T04:56:04;-1.70;99.90
11320;DHT22;5715;48.234;14.320;2022-12-29T04:58:52;-1.70;99.90
11320;DHT22;5715;48.234;14.320;2022-12-29T05:01:40;-1.70;99.90
11320;DHT22;5715;48.234;14.320;2022-12-29T05:04:29;-1.80;99.90
11320;DHT22;5715;48.234;14.320;2022-12-29T05:07:17;-1.80;99.90
11320;DHT22;5715;48.234;14.320;2022-12-29T05:10:06;-1.80;99.90
11320;DHT22;5715;48.234;14.320;2022-12-29T05:12:55;-1.90;99.90
11320;DHT22;5715;48.234;14.320;2022-12-29T05:16:00;-1.90;99.90
11320;DHT22;5715;48.234;14.320;2022-12-29T05:18:48;-1.90;99.90
11320;DHT22;5715;48.234;14.320;2022-12-29T05:21:36;-1.90;99.90
11320;DHT22;5715;48.234;14.320;2022-12-29T05:24:23;-2.00;99.90
11320;DHT22;5715;48.234;14.320;2022-12-29T05:27:11;-2.00;99.90
11320;DHT22;5715;48.234;14.320;2022-12-29T05:29:58;-2.00;99.90
11320;DHT22;5715;48.234;14.320;2022-12-29T05:32:46;-2.00;99.90
11320;DHT22;5715;48.234;14.320;2022-12-29T05:35:33;-2.00;99.90
11320;DHT22;5715;48.234;14.320;2022-12-29T05:38:21;-1.90;99.90
11320;DHT22;5715;48.234;14.320;2022-12-29T05:41:09;-1.80;99.90
11320;DHT22;5715;48.234;14.320;2022-12-29T05:43:57;-1.80;99.90
11320;DHT22;5715;48.234;14.320;2022-12-29T05:46:44;-1.80;99.90
11320;DHT22;5715;48.234;14.320;2022-12-29T05:49:32;-1.80;99.90
11320;DHT22;5715;48.234;14.320;2022-12-29T05:52:20;-1.90;99.90
11320;DHT22;5715;48.234;14.320;2022-12-29T05:55:08;-1.90;99.90
11320;DHT22;5715;48.234;14.320;2022-12-29T05:57:56;-1.90;99.90
11320;DHT22;5715;48.234;14.320;2022-12-29T06:00:44;-1.90;99.90
11320;DHT22;5715;48.234;14.320;2022-12-29T06:03:32;-2.00;99.90
11320;DHT22;5715;48.234;14.320;2022-12-29T06:06:19;-2.00;99.90
11320;DHT22;5715;48.234;14.320;2022-12-29T06:09:09;-2.00;99.90
11320;DHT22;5715;48.234;14.320;2022-12-29T06:11:57;-2.00;99.90
11320;DHT22;5715;48.234;14.320;2022-12-29T06:14:45;-2.00;99.90
11320;DHT22;5715;48.234;14.320;2022-12-29T06:17:33;-2.00;99.90
11320;DHT22;5715;48.234;14.320;2022-12-29T06:20:20;-2.00;99.90
11320;DHT22;5715;48.234;14.320;2022-12-29T06:23:08;-2.00;99.90
11320;DHT22;5715;48.234;14.320;2022-12-29T06:25:56;-2.00;99.90
11320;DHT22;5715;48.234;14.320;2022-12-29T06:28:44;-2.00;99.90
11320;DHT22;5715;48.234;14.320;2022-12-29T06:31:32;-2.00;99.90
11320;DHT22;5715;48.234;14.320;2022-12-29T06:34:19;-2.00;99.90
11320;DHT22;5715;48.234;14.320;2022-12-29T06:37:07;-2.00;99.90
11320;DHT22;5715;48.234;14.320;2022-12-29T06:39:55;-2.00;99.90
11320;DHT22;5715;48.234;14.320;2022-12-29T06:42:42;-2.00;99.90
11320;DHT22;5715;48.234;14.320;2022-12-29T06:45:30;-1.90;99.90
11320;DHT22;5715;48.234;14.320;2022-12-29T06:48:17;-1.90;99.90
11320;DHT22;5715;48.234;14.320;2022-12-29T06:51:05;-1.90;99.90
11320;DHT22;5715;48.234;14.320;2022-12-29T06:53:52;-1.90;99.90
11320;DHT22;5715;48.234;14.320;2022-12-29T06:56:40;-1.80;99.90
11320;DHT22;5715;48.234;14.320;2022-12-29T06:59:28;-1.80;99.90
11320;DHT22;5715;48.234;14.320;2022-12-29T07:02:15;-1.80;99.90
11320;DHT22;5715;48.234;14.320;2022-12-29T07:05:05;-1.70;99.90
11320;DHT22;5715;48.234;14.320;2022-12-29T07:07:54;-1.70;99.90
11320;DHT22;5715;48.234;14.320;2022-12-29T07:10:42;-1.60;99.90
11320;DHT22;5715;48.234;14.320;2022-12-29T07:13:30;-1.50;99.90
11320;DHT22;5715;48.234;14.320;2022-12-29T07:16:17;-1.40;99.90
11320;DHT22;5715;48.234;14.320;2022-12-29T07:19:05;-1.30;99.90
11320;DHT22;5715;48.234;14.320;2022-12-29T07:21:54;-1.20;99.90
11320;DHT22;5715;48.234;14.320;2022-12-29T07:24:42;-1.20;99.90
11320;DHT22;5715;48.234;14.320;2022-12-29T07:27:30;-1.20;99.90
11320;DHT22;5715;48.234;14.320;2022-12-29T07:30:18;-1.10;99.90
11320;DHT22;5715;48.234;14.320;2022-12-29T07:33:05;-1.10;99.90
11320;DHT22;5715;48.234;14.320;2022-12-29T07:35:53;-1.10;99.90
11320;DHT22;5715;48.234;14.320;2022-12-29T07:38:41;-1.00;99.90
11320;DHT22;5715;48.234;14.320;2022-12-29T07:41:29;-0.90;99.90
11320;DHT22;5715;48.234;14.320;2022-12-29T07:44:17;-0.80;99.90
11320;DHT22;5715;48.234;14.320;2022-12-29T07:47:05;-0.70;99.90
11320;DHT22;5715;48.234;14.320;2022-12-29T07:49:52;-0.60;99.90
11320;DHT22;5715;48.234;14.320;2022-12-29T07:52:40;-0.50;99.90
11320;DHT22;5715;48.234;14.320;2022-12-29T07:55:27;-0.40;99.90
11320;DHT22;5715;48.234;14.320;2022-12-29T07:58:15;-0.30;99.90
11320;DHT22;5715;48.234;14.320;2022-12-29T08:01:03;-0.20;99.90
11320;DHT22;5715;48.234;14.320;2022-12-29T08:03:52;0.00;99.90
11320;DHT22;5715;48.234;14.320;2022-12-29T08:06:43;0.10;99.90
11320;DHT22;5715;48.234;14.320;2022-12-29T08:09:32;0.20;99.90
11320;DHT22;5715;48.234;14.320;2022-12-29T08:12:20;0.40;99.90
11320;DHT22;5715;48.234;14.320;2022-12-29T08:15:09;0.40;99.90
11320;DHT22;5715;48.234;14.320;2022-12-29T08:17:59;0.40;99.90
11320;DHT22;5715;48.234;14.320;2022-12-29T08:20:47;0.60;99.90
11320;DHT22;5715;48.234;14.320;2022-12-29T08:23:41;0.70;99.90
11320;DHT22;5715;48.234;14.320;2022-12-29T08:26:28;0.90;99.90
11320;DHT22;5715;48.234;14.320;2022-12-29T08:29:16;0.90;99.90
11320;DHT22;5715;48.234;14.320;2022-12-29T08:32:04;0.90;99.90
11320;DHT22;5715;48.234;14.320;2022-12-29T08:34:51;1.00;99.90
11320;DHT22;5715;48.234;14.320;2022-12-29T08:37:39;1.10;99.90
11320;DHT22;5715;48.234;14.320;2022-12-29T08:40:26;1.20;99.90
11320;DHT22;5715;48.234;14.320;2022-12-29T08:43:14;1.30;99.90
11320;DHT22;5715;48.234;14.320;2022-12-29T08:46:04;1.30;99.90
11320;DHT22;5715;48.234;14.320;2022-12-29T08:48:53;1.30;99.90
11320;DHT22;5715;48.234;14.320;2022-12-29T08:51:41;1.40;99.90
11320;DHT22;5715;48.234;14.320;2022-12-29T08:54:28;1.50;99.90
11320;DHT22;5715;48.234;14.320;2022-12-29T08:57:16;1.60;99.90
11320;DHT22;5715;48.234;14.320;2022-12-29T09:00:04;1.70;99.90
11320;DHT22;5715;48.234;14.320;2022-12-29T09:02:53;1.70;99.90
11320;DHT22;5715;48.234;14.320;2022-12-29T09:05:40;1.70;99.90
11320;DHT22;5715;48.234;14.320;2022-12-29T09:08:28;1.70;99.90
11320;DHT22;5715;48.234;14.320;2022-12-29T09:11:18;1.80;99.90
11320;DHT22;5715;48.234;14.320;2022-12-29T09:14:08;1.90;99.90
11320;DHT22;5715;48.234;14.320;2022-12-29T09:16:56;1.90;99.90
11320;DHT22;5715;48.234;14.320;2022-12-29T09:20:02;2.10;99.90
11320;DHT22;5715;48.234;14.320;2022-12-29T09:22:51;2.20;99.90
11320;DHT22;5715;48.234;14.320;2022-12-29T09:25:38;2.20;99.90
11320;DHT22;5715;48.234;14.320;2022-12-29T09:28:26;2.20;99.90
11320;DHT22;5715;48.234;14.320;2022-12-29T09:31:16;2.30;99.90
11320;DHT22;5715;48.234;14.320;2022-12-29T09:34:03;2.40;99.90
11320;DHT22;5715;48.234;14.320;2022-12-29T09:36:51;2.50;99.90
11320;DHT22;5715;48.234;14.320;2022-12-29T09:39:38;2.50;99.90
11320;DHT22;5715;48.234;14.320;2022-12-29T09:42:46;2.50;99.90
11320;DHT22;5715;48.234;14.320;2022-12-29T09:49:52;2.60;99.90
11320;DHT22;5715;48.234;14.320;2022-12-29T09:52:35;2.70;99.90
11320;DHT22;5715;48.234;14.320;2022-12-29T09:55:39;2.80;99.90
11320;DHT22;5715;48.234;14.320;2022-12-29T09:58:50;2.80;99.90
11320;DHT22;5715;48.234;14.320;2022-12-29T10:01:53;2.80;99.90
11320;DHT22;5715;48.234;14.320;2022-12-29T10:04:51;2.80;99.90
11320;DHT22;5715;48.234;14.320;2022-12-29T10:07:50;2.90;99.90
11320;DHT22;5715;48.234;14.320;2022-12-29T10:11:02;2.90;99.90
11320;DHT22;5715;48.234;14.320;2022-12-29T10:18:06;3.00;99.90
11320;DHT22;5715;48.234;14.320;2022-12-29T10:21:22;3.10;99.90
11320;DHT22;5715;48.234;14.320;2022-12-29T10:24:19;3.20;99.90
11320;DHT22;5715;48.234;14.320;2022-12-29T10:27:12;3.30;99.90
11320;DHT22;5715;48.234;14.320;2022-12-29T10:30:04;3.40;99.90
11320;DHT22;5715;48.234;14.320;2022-12-29T10:32:56;3.30;99.90
11320;DHT22;5715;48.234;14.320;2022-12-29T10:35:47;3.40;99.90
11320;DHT22;5715;48.234;14.320;2022-12-29T10:39:02;3.50;99.90
11320;DHT22;5715;48.234;14.320;2022-12-29T10:42:11;3.70;99.90
11320;DHT22;5715;48.234;14.320;2022-12-29T10:45:14;3.90;99.90
11320;DHT22;5715;48.234;14.320;2022-12-29T10:48:15;3.90;99.90
11320;DHT22;5715;48.234;14.320;2022-12-29T10:51:21;4.00;99.90
11320;DHT22;5715;48.234;14.320;2022-12-29T10:54:23;4.10;99.90
11320;DHT22;5715;48.234;14.320;2022-12-29T10:57:41;4.40;99.90
11320;DHT22;5715;48.234;14.320;2022-12-29T11:00:33;4.50;99.90
11320;DHT22;5715;48.234;14.320;2022-12-29T11:06:27;5.10;99.90
11320;DHT22;5715;48.234;14.320;2022-12-29T11:09:23;5.20;99.90
11320;DHT22;5715;48.234;14.320;2022-12-29T11:12:30;5.40;99.90
11320;DHT22;5715;48.234;14.320;2022-12-29T11:15:18;5.50;99.90
11320;DHT22;5715;48.234;14.320;2022-12-29T11:18:21;5.50;99.90
11320;DHT22;5715;48.234;14.320;2022-12-29T11:21:36;5.40;99.90
11320;DHT22;5715;48.234;14.320;2022-12-29T11:24:29;5.30;99.90
11320;DHT22;5715;48.234;14.320;2022-12-29T11:27:23;5.30;99.90
11320;DHT22;5715;48.234;14.320;2022-12-29T11:30:27;5.40;99.90
11320;DHT22;5715;48.234;14.320;2022-12-29T11:33:17;5.50;99.90
11320;DHT22;5715;48.234;14.320;2022-12-29T11:36:17;5.50;99.90
11320;DHT22;5715;48.234;14.320;2022-12-29T11:39:30;5.60;99.90
11320;DHT22;5715;48.234;14.320;2022-12-29T11:42:55;5.70;99.90
11320;DHT22;5715;48.234;14.320;2022-12-29T11:45:46;5.80;99.90
11320;DHT22;5715;48.234;14.320;2022-12-29T11:48:41;5.90;99.90
11320;DHT22;5715;48.234;14.320;2022-12-29T11:54:34;6.10;99.90
11320;DHT22;5715;48.234;14.320;2022-12-29T11:57:25;6.50;99.90
11320;DHT22;5715;48.234;14.320;2022-12-29T12:00:20;6.70;99.90
11320;DHT22;5715;48.234;14.320;2022-12-29T12:03:21;7.00;99.90
11320;DHT22;5715;48.234;14.320;2022-12-29T12:06:16;7.10;99.90
11320;DHT22;5715;48.234;14.320;2022-12-29T12:09:16;7.20;99.90
11320;DHT22;5715;48.234;14.320;2022-12-29T12:12:29;7.30;99.90
11320;DHT22;5715;48.234;14.320;2022-12-29T12:15:52;7.10;99.90
11320;DHT22;5715;48.234;14.320;2022-12-29T12:18:55;6.80;99.90
11320;DHT22;5715;48.234;14.320;2022-12-29T12:21:55;6.50;99.90
11320;DHT22;5715;48.234;14.320;2022-12-29T12:25:20;6.60;99.90
11320;DHT22;5715;48.234;14.320;2022-12-29T12:28:59;6.70;99.90
11320;DHT22;5715;48.234;14.320;2022-12-29T12:31:59;6.70;99.90
11320;DHT22;5715;48.234;14.320;2022-12-29T12:34:52;6.60;99.90
11320;DHT22;5715;48.234;14.320;2022-12-29T12:37:47;6.60;99.90
11320;DHT22;5715;48.234;14.320;2022-12-29T12:44:41;6.70;99.90
11320;DHT22;5715;48.234;14.320;2022-12-29T12:54:56;6.70;99.90
11320;DHT22;5715;48.234;14.320;2022-12-29T12:58:16;6.60;99.90
11320;DHT22;5715;48.234;14.320;2022-12-29T13:11:11;6.70;99.90
11320;DHT22;5715;48.234;14.320;2022-12-29T13:18:16;7.00;99.90
11320;DHT22;5715;48.234;14.320;2022-12-29T13:21:25;7.00;99.90
11320;DHT22;5715;48.234;14.320;2022-12-29T13:31:15;6.90;99.90
11320;DHT22;5715;48.234;14.320;2022-12-29T13:37:57;6.80;99.90
11320;DHT22;5715;48.234;14.320;2022-12-29T13:40:55;6.80;99.90
11320;DHT22;5715;48.234;14.320;2022-12-29T13:43:47;6.80;99.90
11320;DHT22;5715;48.234;14.320;2022-12-29T13:46:41;6.80;99.90
11320;DHT22;5715;48.234;14.320;2022-12-29T13:49:33;6.70;99.90
11320;DHT22;5715;48.234;14.320;2022-12-29T13:52:45;6.70;99.90
11320;DHT22;5715;48.234;14.320;2022-12-29T13:59:19;6.50;99.90
11320;DHT22;5715;48.234;14.320;2022-12-29T14:02:31;6.50;99.90
11320;DHT22;5715;48.234;14.320;2022-12-29T14:05:28;6.40;99.90
11320;DHT22;5715;48.234;14.320;2022-12-29T14:08:18;6.30;99.90
11320;DHT22;5715;48.234;14.320;2022-12-29T14:11:11;6.10;99.90
11320;DHT22;5715;48.234;14.320;2022-12-29T14:14:24;6.10;99.90
11320;DHT22;5715;48.234;14.320;2022-12-29T14:17:20;5.90;99.90
11320;DHT22;5715;48.234;14.320;2022-12-29T14:20:21;5.80;99.90
11320;DHT22;5715;48.234;14.320;2022-12-29T14:28:53;5.50;99.90
11320;DHT22;5715;48.234;14.320;2022-12-29T14:31:54;5.40;99.90
11320;DHT22;5715;48.234;14.320;2022-12-29T14:34:43;5.30;99.90
11320;DHT22;5715;48.234;14.320;2022-12-29T14:37:38;5.30;99.90
11320;DHT22;5715;48.234;14.320;2022-12-29T14:40:26;5.20;99.90
11320;DHT22;5715;48.234;14.320;2022-12-29T14:43:25;5.00;99.90
11320;DHT22;5715;48.234;14.320;2022-12-29T14:46:14;5.00;99.90
11320;DHT22;5715;48.234;14.320;2022-12-29T14:49:02;4.90;99.90
11320;DHT22;5715;48.234;14.320;2022-12-29T14:51:52;4.70;99.90
11320;DHT22;5715;48.234;14.320;2022-12-29T14:54:57;4.60;99.90
11320;DHT22;5715;48.234;14.320;2022-12-29T14:58:30;4.50;99.90
11320;DHT22;5715;48.234;14.320;2022-12-29T15:01:50;4.40;99.90
11320;DHT22;5715;48.234;14.320;2022-12-29T15:04:44;4.40;99.90
11320;DHT22;5715;48.234;14.320;2022-12-29T15:07:35;4.30;99.90
11320;DHT22;5715;48.234;14.320;2022-12-29T15:10:25;4.20;99.90
11320;DHT22;5715;48.234;14.320;2022-12-29T15:13:46;4.20;99.90
11320;DHT22;5715;48.234;14.320;2022-12-29T15:16:35;4.10;99.90
11320;DHT22;5715;48.234;14.320;2022-12-29T15:19:25;4.00;99.90
11320;DHT22;5715;48.234;14.320;2022-12-29T15:22:14;3.90;99.90
11320;DHT22;5715;48.234;14.320;2022-12-29T15:25:02;3.80;99.90
11320;DHT22;5715;48.234;14.320;2022-12-29T15:28:01;3.80;99.90
11320;DHT22;5715;48.234;14.320;2022-12-29T15:31:17;3.70;99.90
11320;DHT22;5715;48.234;14.320;2022-12-29T15:34:20;3.60;99.90
11320;DHT22;5715;48.234;14.320;2022-12-29T15:37:09;3.40;99.90
11320;DHT22;5715;48.234;14.320;2022-12-29T15:39:57;3.30;99.90
11320;DHT22;5715;48.234;14.320;2022-12-29T15:42:57;3.30;99.90
11320;DHT22;5715;48.234;14.320;2022-12-29T15:46:01;3.20;99.90
11320;DHT22;5715;48.234;14.320;2022-12-29T15:48:50;3.10;99.90
11320;DHT22;5715;48.234;14.320;2022-12-29T15:51:39;3.00;99.90
11320;DHT22;5715;48.234;14.320;2022-12-29T15:54:31;2.90;99.90
11320;DHT22;5715;48.234;14.320;2022-12-29T15:57:25;2.80;99.90
11320;DHT22;5715;48.234;14.320;2022-12-29T16:00:32;2.70;99.90
11320;DHT22;5715;48.234;14.320;2022-12-29T16:03:24;2.60;99.90
11320;DHT22;5715;48.234;14.320;2022-12-29T16:06:35;2.70;99.90
11320;DHT22;5715;48.234;14.320;2022-12-29T16:09:43;2.70;99.90
11320;DHT22;5715;48.234;14.320;2022-12-29T16:12:34;2.60;99.90
11320;DHT22;5715;48.234;14.320;2022-12-29T16:15:24;2.50;99.90
11320;DHT22;5715;48.234;14.320;2022-12-29T16:18:25;2.40;99.90
11320;DHT22;5715;48.234;14.320;2022-12-29T16:21:24;2.30;99.90
11320;DHT22;5715;48.234;14.320;2022-12-29T16:24:21;2.30;99.90
11320;DHT22;5715;48.234;14.320;2022-12-29T16:27:27;2.10;99.90
11320;DHT22;5715;48.234;14.320;2022-12-29T16:30:23;2.00;99.90
11320;DHT22;5715;48.234;14.320;2022-12-29T16:33:49;1.90;99.90
11320;DHT22;5715;48.234;14.320;2022-12-29T16:37:01;1.80;99.90
11320;DHT22;5715;48.234;14.320;2022-12-29T16:39:50;1.80;99.90
11320;DHT22;5715;48.234;14.320;2022-12-29T16:48:46;1.70;99.90
11320;DHT22;5715;48.234;14.320;2022-12-29T16:51:37;1.70;99.90
11320;DHT22;5715;48.234;14.320;2022-12-29T16:54:32;1.70;99.90
11320;DHT22;5715;48.234;14.320;2022-12-29T16:57:28;1.70;99.90
11320;DHT22;5715;48.234;14.320;2022-12-29T17:00:24;1.60;99.90
11320;DHT22;5715;48.234;14.320;2022-12-29T17:03:14;1.60;99.90
11320;DHT22;5715;48.234;14.320;2022-12-29T17:06:03;1.50;99.90
11320;DHT22;5715;48.234;14.320;2022-12-29T17:08:52;1.50;99.90
11320;DHT22;5715;48.234;14.320;2022-12-29T17:11:40;1.50;99.90
11320;DHT22;5715;48.234;14.320;2022-12-29T17:15:03;1.50;99.90
11320;DHT22;5715;48.234;14.320;2022-12-29T17:17:55;1.60;99.90
11320;DHT22;5715;48.234;14.320;2022-12-29T17:20:43;1.80;99.90
11320;DHT22;5715;48.234;14.320;2022-12-29T17:23:33;1.70;99.90
11320;DHT22;5715;48.234;14.320;2022-12-29T17:26:21;1.70;99.90
11320;DHT22;5715;48.234;14.320;2022-12-29T17:29:28;1.60;99.90
11320;DHT22;5715;48.234;14.320;2022-12-29T17:32:19;1.50;99.90
11320;DHT22;5715;48.234;14.320;2022-12-29T17:35:16;1.40;99.90
11320;DHT22;5715;48.234;14.320;2022-12-29T17:38:29;1.30;99.90
11320;DHT22;5715;48.234;14.320;2022-12-29T17:41:21;1.20;99.90
11320;DHT22;5715;48.234;14.320;2022-12-29T17:44:17;1.10;99.90
11320;DHT22;5715;48.234;14.320;2022-12-29T17:47:14;1.10;99.90
11320;DHT22;5715;48.234;14.320;2022-12-29T17:50:03;1.00;99.90
11320;DHT22;5715;48.234;14.320;2022-12-29T17:52:54;0.90;99.90
11320;DHT22;5715;48.234;14.320;2022-12-29T17:55:47;0.90;99.90
11320;DHT22;5715;48.234;14.320;2022-12-29T17:58:35;0.80;99.90
11320;DHT22;5715;48.234;14.320;2022-12-29T18:01:23;0.70;99.90
11320;DHT22;5715;48.234;14.320;2022-12-29T18:04:19;0.70;99.90
11320;DHT22;5715;48.234;14.320;2022-12-29T18:07:10;0.60;99.90
11320;DHT22;5715;48.234;14.320;2022-12-29T18:09:58;0.60;99.90
11320;DHT22;5715;48.234;14.320;2022-12-29T18:12:50;0.60;99.90
11320;DHT22;5715;48.234;14.320;2022-12-29T18:15:40;0.50;99.90
11320;DHT22;5715;48.234;14.320;2022-12-29T18:18:28;0.60;99.90
11320;DHT22;5715;48.234;14.320;2022-12-29T18:21:18;0.50;99.90
11320;DHT22;5715;48.234;14.320;2022-12-29T18:24:12;0.50;99.90
11320;DHT22;5715;48.234;14.320;2022-12-29T18:27:12;0.50;99.90
11320;DHT22;5715;48.234;14.320;2022-12-29T18:30:00;0.60;99.90
11320;DHT22;5715;48.234;14.320;2022-12-29T18:32:48;0.60;99.90
11320;DHT22;5715;48.234;14.320;2022-12-29T18:35:55;0.60;99.90
11320;DHT22;5715;48.234;14.320;2022-12-29T18:38:45;0.60;99.90
11320;DHT22;5715;48.234;14.320;2022-12-29T18:41:33;0.60;99.90
11320;DHT22;5715;48.234;14.320;2022-12-29T18:44:21;0.60;99.90
11320;DHT22;5715;48.234;14.320;2022-12-29T18:47:10;0.60;99.90
11320;DHT22;5715;48.234;14.320;2022-12-29T18:49:58;0.60;99.90
11320;DHT22;5715;48.234;14.320;2022-12-29T18:52:46;0.60;99.90
11320;DHT22;5715;48.234;14.320;2022-12-29T18:55:33;0.60;99.90
11320;DHT22;5715;48.234;14.320;2022-12-29T18:58:22;0.60;99.90
11320;DHT22;5715;48.234;14.320;2022-12-29T19:01:22;0.50;99.90
11320;DHT22;5715;48.234;14.320;2022-12-29T19:04:13;0.40;99.90
11320;DHT22;5715;48.234;14.320;2022-12-29T19:07:01;0.40;99.90
11320;DHT22;5715;48.234;14.320;2022-12-29T19:09:49;0.40;99.90
11320;DHT22;5715;48.234;14.320;2022-12-29T19:12:37;0.50;99.90
11320;DHT22;5715;48.234;14.320;2022-12-29T19:15:26;0.50;99.90
11320;DHT22;5715;48.234;14.320;2022-12-29T19:18:18;0.50;99.90
11320;DHT22;5715;48.234;14.320;2022-12-29T19:21:27;0.50;99.90
11320;DHT22;5715;48.234;14.320;2022-12-29T19:24:15;0.40;99.90
11320;DHT22;5715;48.234;14.320;2022-12-29T19:27:03;0.40;99.90
11320;DHT22;5715;48.234;14.320;2022-12-29T19:29:51;0.40;99.90
11320;DHT22;5715;48.234;14.320;2022-12-29T19:32:39;0.30;99.90
11320;DHT22;5715;48.234;14.320;2022-12-29T19:35:29;0.20;99.90
11320;DHT22;5715;48.234;14.320;2022-12-29T19:38:17;0.20;99.90
11320;DHT22;5715;48.234;14.320;2022-12-29T19:41:06;0.10;99.90
11320;DHT22;5715;48.234;14.320;2022-12-29T19:43:55;0.10;99.90
11320;DHT22;5715;48.234;14.320;2022-12-29T19:46:43;0.10;99.90
11320;DHT22;5715;48.234;14.320;2022-12-29T19:49:31;0.00;99.90
11320;DHT22;5715;48.234;14.320;2022-12-29T19:52:19;0.00;99.90
11320;DHT22;5715;48.234;14.320;2022-12-29T19:55:08;0.00;99.90
11320;DHT22;5715;48.234;14.320;2022-12-29T19:57:58;0.00;99.90
11320;DHT22;5715;48.234;14.320;2022-12-29T20:00:46;0.00;99.90